Louisville, KY

1:51 AM EDT on August 24, 2017 (GMT -0400)
WAVE 3 News Weather Garden / 811 Call Before You Dig | | Change Station

Elev 459 ft 38.24 °N, 85.75 °W | Updated 12 seconds ago

Mostly Cloudy
Mostly Cloudy
69.0 °F
Feels Like 69.0 °F
N
0.0
Wind Variable Wind from NNE
Gusts 7.0 mph

Today
High -- | Low -- °F
--% Chance of Precip.
Yesterday
High -- | Low -- °F
Precip. -- in
Pressure 30.02 in
Visibility 10.0 miles
Clouds Mostly Cloudy 6000 ft
Dew Point 55 °F
Humidity 62%
Rainfall 0.00 in
Snow Depth Not available.
7:05 AM 8:24 PM
Waxing Crescent, 7% visible
METAR KLOU 240453Z AUTO 34003KT 10SM BKN060 19/13 A3003 RMK AO2 SLP164 T01940133 402720178
Pressure 30.02 in
Visibility 10.0 miles
Clouds Mostly Cloudy 6000 ft
Dew Point 55 °F
Humidity 62%
Rainfall 0.00 in
Snow Depth Not available.
7:05 AM 8:24 PM
Waxing Crescent, 7% visible
METAR KLOU 240453Z AUTO 34003KT 10SM BKN060 19/13 A3003 RMK AO2 SLP164 T01940133 402720178

Get Severe Weather Alerts

Thanks for signing up!

Be on the lookout for a verification email in your inbox.

You'll start receiving the daily forecast at 6 AM.

×

10-Day Weather Forecast

Almanac

Astronomy

Aug. 24, 2017 Rise Set
Actual Time
Civil Twilight
Nautical Twilight
Astronomical Twilight
Moon
Length of Visible Light
Length of Day
Tomorrow will be .
, % of the Moon is Illuminated

Today's Extremes

State Highs State Lows

Community

WunderPhotos

Category 6

Welcome to Category 6. This is the collective home for Weather Underground's featured writeups by Dr. Jeff Masters (right), Bob Henson (left), Chris Burt, and other regular contributors.

Nearby

Air Quality

  Air Quality AQ Index Pollutant
Not available.

Snow Depth

Station Depth Elevation

Earthquake Activity

City Distance Mag. Time & Date
Minimum magnitude displayed is 2.5.

Coastal Water Temperatures

Place Temperature

Stations

Nearby Weather Stations

Station Location Temp. Windchill Dew Point Humidity Wind Precip. Elev Updated Type
                   

Watches & Warnings

There are currently no watches in effect.